Time;durP1;ratioP1;P1;durP2;ratioP2;P2;SDS_P1;SDS_P2;PMS_P1;PMS_P2;Temp;Humidity;BMP_temperature;BMP_pressure;BME280_temperature;BME280_humidity;BME280_pressure;Samples;Min_cycle;Max_cycle;Signal;HPM_P1;HPM_P2
2022/05/12 00:01:11;;;;;;;3.83;1.40;;;10.70;99.90;;;;;;5059038;28;20040;-76
2022/05/12 00:03:37;;;;;;;6.35;1.33;;;10.70;99.90;;;;;;5081423;28;20032;-76
2022/05/12 00:06:03;;;;;;;3.20;1.10;;;10.60;99.90;;;;;;5082586;28;20040;-76
2022/05/12 00:08:28;;;;;;;4.75;1.10;;;10.60;99.90;;;;;;5088148;28;20229;-76
2022/05/12 00:10:54;;;;;;;4.65;1.33;;;10.60;99.90;;;;;;5081064;28;20511;-76
2022/05/12 00:13:20;;;;;;;8.00;1.85;;;10.60;99.90;;;;;;5082613;28;20095;-76
2022/05/12 00:15:48;;;;;;;4.60;1.00;;;10.60;99.90;;;;;;5060630;28;20040;-77
2022/05/12 00:18:14;;;;;;;5.53;1.55;;;10.60;99.90;;;;;;5085917;28;20160;-76
2022/05/12 00:20:41;;;;;;;3.13;1.10;;;10.60;99.90;;;;;;5089439;28;20464;-76
2022/05/12 00:23:15;;;;;;;6.38;1.67;;;10.60;99.90;;;;;;5088098;28;20140;-75
2022/05/12 00:25:44;;;;;;;4.05;1.13;;;10.60;99.90;;;;;;5087171;28;20055;-76
2022/05/12 00:28:10;;;;;;;5.75;1.48;;;10.50;99.90;;;;;;5082888;28;20057;-76
2022/05/12 00:30:36;;;;;;;8.18;1.90;;;10.50;99.90;;;;;;5078624;28;20045;-76
2022/05/12 00:33:02;;;;;;;5.75;1.40;;;10.40;99.90;;;;;;5084402;28;20040;-75
2022/05/12 00:35:28;;;;;;;4.03;1.35;;;10.40;99.90;;;;;;5082226;28;20086;-76
2022/05/12 00:37:54;;;;;;;4.75;1.48;;;10.40;99.90;;;;;;5066911;28;20036;-76
2022/05/12 00:40:20;;;;;;;6.18;1.60;;;10.40;99.90;;;;;;5082511;28;20048;-75
2022/05/12 00:43:02;;;;;;;6.22;1.63;;;10.40;99.90;;;;;;5082930;28;20048;-76
2022/05/12 00:45:30;;;;;;;4.78;1.58;;;10.30;99.90;;;;;;5078263;28;20480;-75
2022/05/12 00:47:57;;;;;;;5.38;2.08;;;10.30;99.90;;;;;;5084399;28;20209;-76
2022/05/12 00:50:33;;;;;;;7.78;1.90;;;10.30;99.90;;;;;;5088708;28;20052;-76
2022/05/12 00:53:01;;;;;;;5.63;2.13;;;10.30;99.90;;;;;;5067602;28;20508;-76
2022/05/12 00:55:40;;;;;;;7.63;1.98;;;10.30;99.90;;;;;;5066144;28;20043;-76
2022/05/12 00:58:08;;;;;;;9.30;2.40;;;10.30;99.90;;;;;;5065533;28;20093;-75
2022/05/12 01:00:35;;;;;;;12.07;2.63;;;10.30;99.90;;;;;;5085619;28;20115;-75
2022/05/12 01:03:07;;;;;;;7.13;2.30;;;10.40;99.90;;;;;;5065886;28;20449;-74
2022/05/12 01:05:33;;;;;;;11.98;2.47;;;10.40;99.90;;;;;;5065469;28;20135;-76
2022/05/12 01:07:59;;;;;;;13.25;2.05;;;10.30;99.90;;;;;;5064304;28;20510;-76
2022/05/12 01:10:26;;;;;;;10.82;2.58;;;10.40;99.90;;;;;;5061800;28;20514;-76
2022/05/12 01:12:52;;;;;;;10.23;2.35;;;10.30;99.90;;;;;;5088608;28;20070;-76
2022/05/12 01:15:21;;;;;;;8.50;2.53;;;10.30;99.90;;;;;;5085213;28;20516;-75
2022/05/12 01:17:47;;;;;;;8.60;2.45;;;10.30;99.90;;;;;;5069162;28;20070;-76
2022/05/12 01:20:15;;;;;;;11.32;2.42;;;10.30;99.90;;;;;;5062499;28;20048;-75
2022/05/12 01:23:04;;;;;;;8.18;1.90;;;10.30;99.90;;;;;;5079907;28;20093;-75
2022/05/12 01:25:30;;;;;;;8.07;2.28;;;10.30;99.90;;;;;;5081867;28;20049;-75
2022/05/12 01:27:56;;;;;;;9.07;2.70;;;10.30;99.90;;;;;;5088784;28;21461;-76
2022/05/12 01:30:23;;;;;;;6.32;2.20;;;10.30;99.90;;;;;;5046214;28;20520;-76
2022/05/12 01:32:50;;;;;;;9.40;2.72;;;10.20;99.90;;;;;;5085746;28;20032;-75
2022/05/12 01:35:19;;;;;;;14.20;2.67;;;10.20;99.90;;;;;;5086687;28;20048;-76
2022/05/12 01:37:46;;;;;;;11.63;3.00;;;10.20;99.90;;;;;;5084151;28;20040;-76
2022/05/12 01:40:19;;;;;;;12.10;2.60;;;10.20;99.90;;;;;;5080965;28;21382;-75
2022/05/12 01:42:45;;;;;;;9.40;2.60;;;10.30;99.90;;;;;;5085675;28;20036;-76
2022/05/12 01:45:12;;;;;;;14.57;2.75;;;10.30;99.90;;;;;;5081598;28;20124;-76
2022/05/12 01:47:38;;;;;;;8.63;2.65;;;10.20;99.90;;;;;;5088948;28;20056;-75
2022/05/12 01:50:05;;;;;;;15.52;3.70;;;10.20;99.90;;;;;;5063415;28;20081;-75
2022/05/12 01:52:30;;;;;;;11.15;3.42;;;10.20;99.90;;;;;;5062250;28;20458;-76
2022/05/12 01:54:56;;;;;;;9.18;2.53;;;10.20;99.90;;;;;;5086863;28;20035;-76
2022/05/12 01:57:22;;;;;;;11.77;3.20;;;10.20;99.90;;;;;;5085869;28;20484;-76
2022/05/12 01:59:49;;;;;;;11.13;3.20;;;10.20;99.90;;;;;;5085145;28;20495;-76
2022/05/12 02:02:15;;;;;;;11.50;3.22;;;10.20;99.90;;;;;;5062044;28;20044;-76
2022/05/12 02:04:41;;;;;;;15.95;3.28;;;10.20;99.90;;;;;;5082047;28;20055;-77
2022/05/12 02:07:07;;;;;;;13.07;3.67;;;10.20;99.90;;;;;;5084672;28;20079;-76
2022/05/12 02:09:33;;;;;;;10.15;3.35;;;10.10;99.90;;;;;;5084328;28;20040;-76
2022/05/12 02:11:59;;;;;;;17.10;4.38;;;10.10;99.90;;;;;;5062696;28;20090;-76
2022/05/12 02:14:24;;;;;;;11.57;3.35;;;10.10;99.90;;;;;;5086714;28;20079;-77
2022/05/12 02:16:50;;;;;;;13.23;4.72;;;10.00;99.90;;;;;;5085215;28;20062;-76
2022/05/12 02:19:17;;;;;;;14.95;4.07;;;10.00;99.90;;;;;;5066247;28;20055;-76
2022/05/12 02:21:42;;;;;;;9.82;3.80;;;9.90;99.90;;;;;;5068090;28;20404;-75
2022/05/12 02:24:08;;;;;;;10.63;4.43;;;9.90;99.90;;;;;;5067451;28;20128;-75
2022/05/12 02:26:34;;;;;;;11.60;4.28;;;9.80;99.90;;;;;;5064842;28;20514;-75
2022/05/12 02:29:00;;;;;;;20.20;5.78;;;9.70;99.90;;;;;;5084069;28;20101;-76
2022/05/12 02:31:26;;;;;;;14.55;4.75;;;9.70;99.90;;;;;;5083986;28;20043;-75
2022/05/12 02:33:52;;;;;;;10.98;4.75;;;9.70;99.90;;;;;;5065298;28;20052;-75
2022/05/12 02:36:18;;;;;;;11.65;4.78;;;9.70;99.90;;;;;;5077351;28;20681;-75
2022/05/12 02:38:43;;;;;;;13.35;4.60;;;9.60;99.90;;;;;;5084025;28;20063;-76
2022/05/12 02:41:09;;;;;;;15.60;4.78;;;9.60;99.90;;;;;;5084744;28;20406;-76
2022/05/12 02:43:35;;;;;;;10.18;4.53;;;9.60;99.90;;;;;;5080166;28;20495;-75
2022/05/12 02:46:04;;;;;;;13.68;5.53;;;9.60;99.90;;;;;;5083054;28;20044;-75
2022/05/12 02:48:33;;;;;;;11.40;5.03;;;9.60;99.90;;;;;;5082749;28;20119;-76
2022/05/12 02:50:59;;;;;;;14.95;5.50;;;9.50;99.90;;;;;;5062784;28;20097;-76
2022/05/12 02:53:26;;;;;;;11.45;5.32;;;9.60;99.90;;;;;;5065246;28;20040;-76
2022/05/12 02:55:52;;;;;;;17.95;5.80;;;9.50;99.90;;;;;;5067440;28;20097;-75
2022/05/12 02:58:18;;;;;;;16.10;5.15;;;9.50;99.90;;;;;;5083384;28;20048;-74
2022/05/12 03:00:44;;;;;;;14.25;4.90;;;9.50;99.90;;;;;;5065883;28;20131;-75
2022/05/12 03:03:10;;;;;;;12.30;5.00;;;9.50;99.90;;;;;;5067397;28;20044;-74
2022/05/12 03:05:37;;;;;;;12.82;5.13;;;9.50;99.90;;;;;;5077707;28;20050;-75
2022/05/12 03:08:03;;;;;;;12.95;4.78;;;9.50;99.90;;;;;;5081419;28;20500;-75
2022/05/12 03:10:31;;;;;;;15.23;5.40;;;9.50;99.90;;;;;;5066719;28;20044;-75
2022/05/12 03:12:57;;;;;;;14.88;5.00;;;9.50;99.90;;;;;;5079339;28;20059;-75
2022/05/12 03:15:23;;;;;;;17.77;5.57;;;9.50;99.90;;;;;;5067050;28;20407;-75
2022/05/12 03:17:49;;;;;;;13.70;5.35;;;9.50;99.90;;;;;;5081015;28;20066;-75
2022/05/12 03:20:18;;;;;;;22.90;5.72;;;9.50;99.90;;;;;;5067335;28;20048;-75
2022/05/12 03:22:44;;;;;;;14.82;4.95;;;9.50;99.90;;;;;;5081970;28;20036;-75
2022/05/12 03:25:11;;;;;;;15.05;5.13;;;9.60;99.90;;;;;;5083065;28;20047;-75
2022/05/12 03:27:38;;;;;;;14.10;5.80;;;9.60;99.90;;;;;;5074606;28;20048;-75
2022/05/12 03:30:07;;;;;;;15.55;6.13;;;9.60;99.90;;;;;;5084817;28;20295;-75
2022/05/12 03:32:33;;;;;;;14.75;5.30;;;9.60;99.90;;;;;;5064127;28;20047;-75
2022/05/12 03:34:58;;;;;;;11.13;4.97;;;9.60;99.90;;;;;;5085529;28;20048;-76
2022/05/12 03:37:24;;;;;;;11.30;5.60;;;9.60;99.90;;;;;;5062898;28;20404;-75
2022/05/12 03:39:50;;;;;;;10.13;5.13;;;9.60;99.90;;;;;;5085642;28;20484;-76
2022/05/12 03:42:16;;;;;;;12.95;4.95;;;9.50;99.90;;;;;;5086525;28;20396;-75
2022/05/12 03:44:53;;;;;;;13.38;5.38;;;9.50;99.90;;;;;;5086062;28;20047;-76
2022/05/12 03:47:22;;;;;;;15.77;5.20;;;9.50;99.90;;;;;;5065401;28;20119;-75
2022/05/12 03:49:57;;;;;;;12.18;5.22;;;9.50;99.90;;;;;;5067546;28;20071;-75
2022/05/12 03:52:24;;;;;;;11.05;5.32;;;9.50;99.90;;;;;;5081016;28;20055;-75
2022/05/12 03:54:51;;;;;;;11.13;4.72;;;9.50;99.90;;;;;;5089533;28;20372;-75
2022/05/12 03:57:18;;;;;;;11.40;5.18;;;9.50;99.90;;;;;;5093957;28;20139;-75
2022/05/12 03:59:47;;;;;;;14.63;5.60;;;9.50;99.90;;;;;;5070051;28;20124;-75
2022/05/12 04:02:15;;;;;;;14.05;5.75;;;9.50;99.90;;;;;;5069172;28;20401;-74
2022/05/12 04:04:43;;;;;;;14.60;5.40;;;9.50;99.90;;;;;;5084691;28;20104;-75
2022/05/12 04:07:11;;;;;;;10.63;5.05;;;9.50;99.90;;;;;;5087485;28;20109;-75
2022/05/12 04:09:37;;;;;;;10.93;5.63;;;9.50;99.90;;;;;;5089882;28;20052;-76
2022/05/12 04:12:05;;;;;;;13.25;5.60;;;9.60;99.90;;;;;;5085530;28;20040;-74
2022/05/12 04:14:31;;;;;;;16.17;5.32;;;9.50;99.90;;;;;;5083571;28;20044;-75
2022/05/12 04:16:59;;;;;;;14.73;5.07;;;9.50;99.90;;;;;;5088878;28;20048;-75
2022/05/12 04:19:25;;;;;;;17.58;5.55;;;9.50;99.90;;;;;;5065996;28;20461;-74
2022/05/12 04:21:52;;;;;;;15.27;5.80;;;9.50;99.90;;;;;;5089267;28;20047;-75
2022/05/12 04:24:18;;;;;;;13.82;6.28;;;9.50;99.90;;;;;;5065232;28;20368;-76
2022/05/12 04:26:44;;;;;;;14.35;5.80;;;9.50;99.90;;;;;;5085080;28;20398;-75
2022/05/12 04:29:11;;;;;;;15.63;5.50;;;9.60;99.90;;;;;;5069238;28;20363;-74
2022/05/12 04:31:37;;;;;;;16.23;6.47;;;9.60;99.90;;;;;;5078613;28;20052;-74
2022/05/12 04:36:47;;;;;;;15.52;5.50;;;9.60;99.90;;;;;;5076931;28;20086;-75
2022/05/12 04:39:12;;;;;;;11.40;5.07;;;9.60;99.90;;;;;;5085533;28;20143;-76
2022/05/12 04:41:38;;;;;;;10.70;5.25;;;9.70;99.90;;;;;;5085425;28;20183;-75
2022/05/12 04:44:06;;;;;;;14.32;5.15;;;9.70;99.90;;;;;;5086422;28;20111;-75
2022/05/12 04:46:34;;;;;;;11.98;6.45;;;9.80;99.90;;;;;;5082839;28;20048;-75
2022/05/12 04:49:00;;;;;;;16.98;6.05;;;9.90;99.90;;;;;;5081866;28;20049;-75
2022/05/12 04:51:26;;;;;;;13.50;6.07;;;10.00;99.90;;;;;;5082254;28;20704;-74
2022/05/12 04:53:52;;;;;;;18.10;5.18;;;10.00;99.90;;;;;;5081559;28;20315;-75
2022/05/12 04:56:18;;;;;;;13.13;5.13;;;10.10;99.90;;;;;;5086660;28;20059;-75
2022/05/12 04:58:44;;;;;;;12.75;5.40;;;10.20;99.90;;;;;;5067860;28;20035;-75
2022/05/12 05:01:09;;;;;;;16.30;5.13;;;10.30;99.90;;;;;;5067842;28;20059;-74
2022/05/12 05:03:35;;;;;;;14.43;5.15;;;10.50;99.90;;;;;;5067119;28;20028;-75
2022/05/12 05:06:01;;;;;;;12.02;5.03;;;10.50;99.90;;;;;;5077714;28;20040;-75
2022/05/12 05:08:26;;;;;;;12.38;4.60;;;10.60;99.90;;;;;;5079704;28;20549;-74
2022/05/12 05:10:55;;;;;;;8.55;4.50;;;10.70;99.90;;;;;;5078729;28;20040;-75
2022/05/12 05:13:22;;;;;;;15.07;4.93;;;10.80;99.90;;;;;;5075000;28;20063;-75
2022/05/12 05:15:50;;;;;;;17.40;5.03;;;10.90;99.90;;;;;;5057571;28;20084;-75
2022/05/12 05:18:18;;;;;;;12.55;4.15;;;11.00;99.90;;;;;;5051947;28;20051;-73
2022/05/12 05:20:44;;;;;;;11.65;4.07;;;11.10;99.90;;;;;;5060110;28;20055;-73
2022/05/12 05:23:12;;;;;;;8.30;3.72;;;11.20;99.90;;;;;;5056641;28;20874;-74
2022/05/12 05:25:38;;;;;;;12.50;4.35;;;11.40;99.90;;;;;;5059944;28;20036;-73
2022/05/12 05:28:05;;;;;;;14.82;3.88;;;11.50;99.90;;;;;;5058746;28;20070;-73
2022/05/12 05:30:31;;;;;;;9.93;3.72;;;11.50;99.90;;;;;;5056400;28;20512;-70
2022/05/12 05:32:56;;;;;;;12.50;4.00;;;11.70;99.90;;;;;;5049444;28;20052;-72
2022/05/12 05:35:23;;;;;;;18.13;3.75;;;11.80;99.90;;;;;;5049986;28;20531;-71
2022/05/12 05:37:52;;;;;;;11.55;4.28;;;11.90;99.90;;;;;;5053226;28;20067;-72
2022/05/12 05:40:20;;;;;;;8.05;3.42;;;12.00;99.90;;;;;;5056573;28;20675;-73
2022/05/12 05:42:47;;;;;;;12.45;3.90;;;12.10;99.90;;;;;;5057380;28;20055;-72
2022/05/12 05:45:15;;;;;;;15.68;4.50;;;12.30;99.90;;;;;;5058147;28;20049;-69
2022/05/12 05:47:45;;;;;;;10.70;3.20;;;12.40;99.90;;;;;;5064200;28;20040;-74
2022/05/12 05:53:23;;;;;;;13.13;4.30;;;12.50;99.90;;;;;;5061485;28;20068;-74
2022/05/12 05:53:26;;;;;;;14.70;3.78;;;12.70;99.90;;;;;;5060083;28;20044;-74
2022/05/12 05:55:53;;;;;;;16.17;4.50;;;12.80;99.90;;;;;;5061000;28;20074;-74
2022/05/12 05:58:20;;;;;;;12.30;3.42;;;12.90;99.90;;;;;;5062792;28;20063;-74
2022/05/12 06:00:46;;;;;;;14.43;3.53;;;13.10;99.90;;;;;;5055841;28;20045;-77
2022/05/12 06:03:12;;;;;;;12.95;2.65;;;13.20;99.90;;;;;;5064232;28;20059;-76
2022/05/12 06:05:38;;;;;;;17.05;3.22;;;13.20;99.90;;;;;;5058107;28;20053;-76
2022/05/12 06:08:04;;;;;;;11.48;3.65;;;13.30;99.90;;;;;;5062372;28;20115;-73
2022/05/12 06:10:30;;;;;;;13.57;2.97;;;13.40;99.90;;;;;;5064187;28;20041;-75
2022/05/12 06:12:56;;;;;;;15.23;3.00;;;13.50;99.90;;;;;;5060352;28;20135;-76
2022/05/12 06:15:23;;;;;;;13.80;2.78;;;13.50;99.90;;;;;;5057146;28;20039;-75
2022/05/12 06:17:49;;;;;;;16.10;3.35;;;13.60;99.90;;;;;;5074534;28;20097;-75
2022/05/12 06:20:16;;;;;;;15.40;3.03;;;13.60;99.90;;;;;;5072229;28;20044;-76
2022/05/12 06:22:42;;;;;;;9.05;2.50;;;13.70;99.90;;;;;;5064015;28;20039;-76
2022/05/12 06:25:10;;;;;;;12.02;2.45;;;13.80;99.90;;;;;;5062090;28;20074;-77
2022/05/12 06:27:35;;;;;;;17.83;2.95;;;13.80;99.90;;;;;;5064761;28;20048;-75
2022/05/12 06:30:03;;;;;;;10.68;2.30;;;13.90;99.90;;;;;;5077513;28;20054;-75
2022/05/12 06:32:30;;;;;;;12.98;3.22;;;14.00;99.90;;;;;;5067205;28;20056;-76
2022/05/12 06:34:55;;;;;;;16.17;2.65;;;14.00;99.90;;;;;;5082689;28;20440;-77
2022/05/12 06:37:21;;;;;;;23.48;3.35;;;14.10;99.90;;;;;;5078406;28;20105;-76
2022/05/12 06:39:47;;;;;;;9.65;2.75;;;14.20;99.90;;;;;;5081718;28;20067;-77
2022/05/12 06:42:13;;;;;;;12.43;3.00;;;14.20;99.90;;;;;;5063370;28;20081;-76
2022/05/12 06:44:41;;;;;;;10.25;2.38;;;14.40;99.90;;;;;;5084467;28;20063;-77
2022/05/12 06:47:12;;;;;;;13.60;2.28;;;14.40;99.90;;;;;;5084872;28;20044;-76
2022/05/12 06:49:37;;;;;;;11.02;2.45;;;14.60;99.90;;;;;;5083431;28;20048;-77
2022/05/12 06:52:07;;;;;;;12.30;2.50;;;14.70;99.90;;;;;;5085898;28;20486;-75
2022/05/12 06:54:35;;;;;;;11.88;2.67;;;14.80;99.90;;;;;;5058712;28;20047;-76
2022/05/12 06:57:02;;;;;;;10.82;2.28;;;14.90;99.90;;;;;;5058853;28;20048;-75
2022/05/12 06:59:27;;;;;;;11.60;2.72;;;15.10;99.90;;;;;;5083450;28;20032;-76
2022/05/12 07:01:53;;;;;;;12.82;2.55;;;15.20;99.90;;;;;;5082111;28;20178;-76
2022/05/12 07:04:19;;;;;;;11.73;2.50;;;15.10;99.90;;;;;;5082571;28;20148;-76
2022/05/12 07:06:45;;;;;;;9.98;2.33;;;15.10;99.90;;;;;;5085207;28;20048;-77
2022/05/12 07:09:11;;;;;;;12.20;2.60;;;15.20;99.90;;;;;;5066177;28;20064;-77
2022/05/12 07:11:37;;;;;;;11.90;2.80;;;15.20;99.90;;;;;;5085887;28;20119;-75
2022/05/12 07:14:03;;;;;;;10.18;2.25;;;15.40;99.90;;;;;;5083004;28;20158;-76
2022/05/12 07:16:29;;;;;;;11.23;2.35;;;15.40;99.90;;;;;;5083810;28;20044;-76
2022/05/12 07:18:54;;;;;;;13.25;2.55;;;15.40;99.90;;;;;;5080525;28;20142;-76
2022/05/12 07:26:50;;;;;;;12.43;2.65;;;15.60;99.90;;;;;;5083585;28;20044;-76
2022/05/12 07:29:19;;;;;;;16.50;3.28;;;15.60;99.90;;;;;;5086295;28;20055;-76
2022/05/12 07:31:47;;;;;;;16.20;3.00;;;15.70;99.90;;;;;;5068228;28;20484;-76
2022/05/12 07:34:13;;;;;;;14.98;3.00;;;15.70;99.90;;;;;;5083499;28;20127;-76
2022/05/12 07:36:43;;;;;;;15.80;2.75;;;15.80;99.90;;;;;;5084587;28;20048;-76
2022/05/12 07:39:12;;;;;;;12.25;2.45;;;16.10;99.90;;;;;;5084301;28;20058;-76
2022/05/12 07:41:41;;;;;;;11.77;2.70;;;16.20;99.90;;;;;;5062045;28;20063;-77
2022/05/12 07:44:13;;;;;;;13.98;1.90;;;16.20;99.90;;;;;;5086018;28;20047;-76
2022/05/12 07:46:39;;;;;;;9.25;2.28;;;16.30;99.90;;;;;;5077430;28;20477;-76
2022/05/12 07:49:04;;;;;;;15.20;2.78;;;16.40;99.90;;;;;;5071852;28;20049;-75
2022/05/12 07:51:30;;;;;;;9.80;2.42;;;16.40;99.90;;;;;;5066641;28;20971;-75
2022/05/12 07:53:56;;;;;;;7.63;1.80;;;16.40;99.90;;;;;;5083167;28;20028;-75
2022/05/12 07:56:26;;;;;;;13.93;3.33;;;16.40;99.90;;;;;;5077969;28;20168;-74
2022/05/12 07:58:53;;;;;;;13.10;2.10;;;16.50;99.90;;;;;;5089328;28;20059;-76
2022/05/12 08:01:20;;;;;;;9.48;2.40;;;16.50;99.90;;;;;;5067047;28;20045;-77
2022/05/12 08:03:46;;;;;;;9.40;1.95;;;16.50;99.90;;;;;;5065754;28;20048;-76
2022/05/12 08:06:15;;;;;;;9.20;2.25;;;16.60;99.90;;;;;;5084658;28;20574;-77
2022/05/12 08:08:41;;;;;;;8.93;2.40;;;16.60;99.90;;;;;;5084439;28;20794;-78
2022/05/12 08:11:07;;;;;;;6.60;2.22;;;16.70;99.90;;;;;;5090029;28;20286;-77
2022/05/12 08:13:33;;;;;;;11.13;2.25;;;16.70;99.90;;;;;;5084733;28;20274;-74
2022/05/12 08:16:00;;;;;;;14.38;2.38;;;16.80;99.90;;;;;;5082236;28;20092;-74
2022/05/12 08:18:26;;;;;;;6.10;1.73;;;16.90;99.90;;;;;;5080905;28;20062;-74
2022/05/12 08:20:53;;;;;;;10.38;2.05;;;17.00;99.90;;;;;;5081374;28;20133;-76
2022/05/12 08:23:19;;;;;;;13.52;3.00;;;17.10;99.90;;;;;;5084894;28;20108;-75
2022/05/12 08:25:47;;;;;;;13.85;2.25;;;17.30;99.90;;;;;;5082524;28;20495;-75
2022/05/12 08:28:18;;;;;;;9.30;2.15;;;17.40;99.90;;;;;;5066872;28;20040;-75
2022/05/12 08:30:44;;;;;;;10.27;1.65;;;17.50;99.90;;;;;;5084864;28;20536;-75
2022/05/12 08:33:11;;;;;;;10.45;2.65;;;17.30;99.90;;;;;;5066409;28;20060;-74
2022/05/12 08:35:36;;;;;;;9.60;2.60;;;17.30;99.90;;;;;;5071829;28;20044;-75
2022/05/12 08:38:02;;;;;;;9.45;3.13;;;17.40;99.90;;;;;;5073804;28;20040;-74
2022/05/12 08:40:40;;;;;;;7.72;2.45;;;17.40;99.90;;;;;;5067487;28;20136;-72
2022/05/12 08:43:40;;;;;;;6.88;1.98;;;17.50;99.90;;;;;;5066565;28;20052;-73
2022/05/12 08:46:10;;;;;;;8.32;2.03;;;17.50;99.90;;;;;;5046316;28;20037;-74
2022/05/12 08:48:42;;;;;;;10.50;2.10;;;17.40;99.90;;;;;;5066851;28;20456;-73
2022/05/12 08:51:13;;;;;;;8.45;2.25;;;17.50;99.90;;;;;;5069151;28;20043;-76
2022/05/12 08:53:48;;;;;;;7.57;1.85;;;17.40;99.90;;;;;;5069547;28;20056;-75
2022/05/12 08:56:16;;;;;;;11.25;2.28;;;17.40;99.90;;;;;;5065345;28;20059;-75
2022/05/12 08:58:42;;;;;;;7.35;1.52;;;17.20;99.90;;;;;;5089522;28;20028;-76
2022/05/12 09:01:22;;;;;;;9.13;1.95;;;17.30;99.90;;;;;;5066150;28;20064;-75
2022/05/12 09:03:56;;;;;;;9.07;1.52;;;17.10;99.90;;;;;;5085077;28;20408;-76
2022/05/12 09:06:27;;;;;;;6.53;1.92;;;17.20;99.90;;;;;;5085165;28;20054;-76
2022/05/12 09:09:02;;;;;;;7.15;1.85;;;17.30;99.90;;;;;;5083776;28;20040;-77
2022/05/12 09:11:38;;;;;;;6.75;1.80;;;17.50;99.90;;;;;;5067424;28;20052;-77
2022/05/12 09:14:12;;;;;;;8.27;2.33;;;17.50;99.90;;;;;;5067347;28;20303;-76
2022/05/12 09:16:38;;;;;;;9.38;2.28;;;17.60;99.90;;;;;;5066088;28;20501;-77
2022/05/12 09:19:04;;;;;;;10.02;1.73;;;17.60;99.90;;;;;;5064099;28;20036;-76
2022/05/12 09:21:35;;;;;;;9.73;1.95;;;17.70;99.90;;;;;;5087822;28;20130;-76
2022/05/12 09:24:03;;;;;;;9.35;2.08;;;17.80;99.90;;;;;;5068729;28;20090;-74
2022/05/12 09:26:36;;;;;;;9.77;2.30;;;17.80;99.90;;;;;;5087005;28;20040;-75
2022/05/12 09:29:21;;;;;;;7.03;1.58;;;17.80;99.90;;;;;;5086581;28;20408;-74
2022/05/12 09:31:56;;;;;;;4.53;1.42;;;17.90;99.90;;;;;;5086105;28;20388;-76
2022/05/12 09:34:30;;;;;;;5.13;1.60;;;17.80;99.90;;;;;;5066429;28;20113;-76
2022/05/12 09:36:56;;;;;;;6.45;1.58;;;17.90;99.90;;;;;;5088387;28;20127;-76
2022/05/12 09:39:34;;;;;;;9.02;2.03;;;17.80;99.90;;;;;;5083770;28;20043;-76
2022/05/12 09:42:06;;;;;;;7.82;1.83;;;17.80;99.90;;;;;;5087125;28;20075;-75
2022/05/12 09:44:33;;;;;;;4.20;1.42;;;18.00;99.90;;;;;;5086505;28;20048;-75
2022/05/12 09:47:03;;;;;;;5.85;1.50;;;18.10;99.90;;;;;;5086415;28;20467;-76
2022/05/12 09:49:33;;;;;;;8.48;2.38;;;18.10;99.90;;;;;;5082845;28;20127;-75
2022/05/12 09:52:24;;;;;;;7.63;1.52;;;18.10;99.90;;;;;;5068712;28;20047;-76
2022/05/12 09:55:18;;;;;;;5.28;1.35;;;18.40;99.90;;;;;;5086727;28;20078;-76
2022/05/12 09:57:52;;;;;;;3.50;1.08;;;18.50;99.90;;;;;;5086602;28;20516;-76
2022/05/12 10:01:01;;;;;;;5.20;1.10;;;18.50;99.90;;;;;;5083613;28;20051;-76
2022/05/12 10:09:13;;;;;;;5.40;2.05;;;18.50;99.90;;;;;;5093970;28;20039;-77
2022/05/12 10:11:45;;;;;;;9.18;1.85;;;18.60;99.90;;;;;;5072801;28;20438;-77
2022/05/12 10:14:28;;;;;;;5.47;1.30;;;18.70;99.90;;;;;;5047399;28;20454;-77
2022/05/12 10:16:57;;;;;;;6.00;1.83;;;18.70;99.30;;;;;;5066786;28;20086;-77
2022/05/12 10:19:25;;;;;;;7.63;1.55;;;18.80;99.60;;;;;;5081542;28;20050;-78
2022/05/12 10:22:22;;;;;;;4.88;1.50;;;18.90;99.90;;;;;;5085693;28;20518;-78
2022/05/12 10:25:14;;;;;;;7.07;1.20;;;18.80;99.40;;;;;;5076992;28;20319;-76
2022/05/12 10:28:02;;;;;;;3.50;1.17;;;18.60;99.00;;;;;;5083117;28;20032;-77
2022/05/12 10:30:52;;;;;;;4.25;1.60;;;18.60;99.10;;;;;;5084674;28;20062;-77
2022/05/12 10:33:44;;;;;;;5.35;1.38;;;18.50;98.70;;;;;;5081662;28;20050;-77
2022/05/12 10:36:30;;;;;;;5.07;1.33;;;18.70;99.50;;;;;;5083700;28;20125;-76
2022/05/12 10:39:09;;;;;;;4.35;1.25;;;18.80;98.70;;;;;;5066788;28;20048;-75
2022/05/12 10:41:42;;;;;;;4.43;1.52;;;18.70;98.00;;;;;;5068476;28;20036;-75
2022/05/12 10:44:46;;;;;;;5.55;1.40;;;18.80;98.60;;;;;;5086282;28;20043;-75
2022/05/12 10:47:22;;;;;;;3.33;1.30;;;18.90;98.20;;;;;;5059711;28;20036;-76
2022/05/12 10:49:58;;;;;;;4.28;1.42;;;19.00;98.10;;;;;;5081912;28;20109;-76
2022/05/12 10:52:37;;;;;;;5.97;1.98;;;18.90;97.50;;;;;;5066840;28;20040;-76
2022/05/12 10:55:14;;;;;;;8.55;1.50;;;18.90;97.20;;;;;;5085195;28;20515;-75
2022/05/12 10:57:55;;;;;;;5.05;1.50;;;18.90;98.20;;;;;;5068120;28;20071;-76
2022/05/12 11:00:34;;;;;;;5.57;1.38;;;18.90;97.80;;;;;;5084727;28;20056;-76
2022/05/12 11:03:32;;;;;;;5.28;1.60;;;19.00;98.50;;;;;;5083088;28;20044;-75
2022/05/12 11:06:02;;;;;;;8.90;1.80;;;19.00;98.00;;;;;;5067995;28;20075;-75
2022/05/12 11:09:09;;;;;;;5.45;1.67;;;19.20;97.90;;;;;;5085629;28;20522;-75
2022/05/12 11:11:43;;;;;;;7.93;1.40;;;19.20;97.40;;;;;;5072377;28;20495;-75
2022/05/12 11:14:22;;;;;;;5.38;1.48;;;19.30;98.00;;;;;;5083175;28;20059;-76
2022/05/12 11:17:06;;;;;;;4.20;1.52;;;19.30;96.90;;;;;;5065068;28;20040;-75
2022/05/12 11:19:32;;;;;;;6.82;2.20;;;19.20;97.50;;;;;;5082106;28;20047;-75
2022/05/12 11:22:03;;;;;;;7.13;1.80;;;19.30;98.10;;;;;;5084435;28;20047;-75
2022/05/12 11:24:38;;;;;;;3.67;1.30;;;19.20;97.10;;;;;;5065815;28;20048;-75
2022/05/12 11:27:28;;;;;;;6.57;1.95;;;19.10;97.30;;;;;;5084084;28;20439;-75
2022/05/12 11:30:06;;;;;;;6.40;2.05;;;19.10;97.30;;;;;;5068226;28;20050;-76
2022/05/12 11:33:02;;;;;;;7.47;1.88;;;19.10;97.80;;;;;;5084009;28;20071;-75
2022/05/12 11:35:48;;;;;;;5.55;1.70;;;19.10;97.70;;;;;;5076849;28;20083;-75
2022/05/12 11:38:33;;;;;;;6.18;1.80;;;19.00;97.20;;;;;;5080217;28;20040;-75
2022/05/12 11:40:59;;;;;;;7.78;2.30;;;19.10;96.80;;;;;;5083885;28;20040;-75
2022/05/12 11:46:30;;;;;;;4.20;1.23;;;19.40;97.00;;;;;;5081672;28;20389;-74
2022/05/12 11:49:03;;;;;;;6.15;2.10;;;19.10;95.30;;;;;;5083995;28;20043;-75
2022/05/12 11:51:43;;;;;;;5.75;2.10;;;18.70;96.30;;;;;;5058271;28;20072;-75
2022/05/12 11:54:20;;;;;;;4.85;2.20;;;18.80;98.20;;;;;;5082402;28;20066;-75
2022/05/12 11:56:51;;;;;;;4.10;1.67;;;19.00;98.30;;;;;;5082318;28;20047;-75
2022/05/12 11:59:26;;;;;;;6.25;1.95;;;19.20;97.40;;;;;;5084883;28;20032;-74
2022/05/12 12:02:04;;;;;;;7.03;2.10;;;19.40;95.40;;;;;;5072547;28;20055;-75
2022/05/12 12:04:39;;;;;;;5.38;1.52;;;19.50;96.50;;;;;;5064017;28;20044;-75
2022/05/12 12:07:16;;;;;;;4.95;1.70;;;19.50;94.30;;;;;;5088649;28;20089;-75
2022/05/12 12:09:43;;;;;;;7.18;1.98;;;19.60;95.00;;;;;;5085208;28;20051;-75
2022/05/12 12:12:30;;;;;;;4.53;1.60;;;19.40;94.30;;;;;;5086485;28;20102;-74
2022/05/12 12:14:58;;;;;;;5.15;1.48;;;19.60;95.30;;;;;;5084134;28;20689;-74
2022/05/12 12:17:24;;;;;;;4.30;1.40;;;19.50;93.60;;;;;;5080174;28;20048;-74
2022/05/12 12:19:52;;;;;;;3.25;1.52;;;19.60;93.00;;;;;;5065001;28;20549;-73
2022/05/12 12:22:46;;;;;;;5.25;1.52;;;19.70;93.50;;;;;;5086303;28;20082;-74
2022/05/12 12:25:34;;;;;;;5.25;1.52;;;19.60;92.90;;;;;;5083885;28;20048;-73
2022/05/12 12:28:14;;;;;;;5.90;1.95;;;19.70;92.90;;;;;;5087584;28;20630;-74
2022/05/12 12:30:55;;;;;;;3.95;1.30;;;19.90;92.70;;;;;;5089336;28;20043;-74
2022/05/12 12:33:31;;;;;;;5.60;1.40;;;19.60;91.90;;;;;;5083636;28;20044;-74
2022/05/12 12:36:01;;;;;;;4.60;1.30;;;19.40;91.70;;;;;;5085559;28;20064;-73
2022/05/12 12:38:46;;;;;;;3.72;1.35;;;19.30;91.30;;;;;;5085255;28;20119;-74
2022/05/12 12:41:15;;;;;;;5.07;2.00;;;18.90;92.20;;;;;;5062939;28;20097;-74
2022/05/12 12:43:48;;;;;;;4.55;1.55;;;18.50;92.50;;;;;;5071107;28;20491;-74
2022/05/12 12:46:27;;;;;;;4.93;1.50;;;18.40;93.00;;;;;;5084003;28;20055;-74
2022/05/12 12:49:21;;;;;;;7.88;1.05;;;18.60;93.20;;;;;;5083878;28;20099;-75
2022/05/12 12:52:05;;;;;;;5.25;1.40;;;18.70;92.80;;;;;;5065415;28;20511;-75
2022/05/12 12:57:24;;;;;;;3.47;1.10;;;19.10;91.60;;;;;;5065293;28;20053;-75
2022/05/12 12:59:57;;;;;;;3.03;1.15;;;19.20;93.10;;;;;;5069820;28;20515;-75
2022/05/12 13:02:43;;;;;;;5.20;1.42;;;19.40;92.30;;;;;;5089976;28;20048;-74
2022/05/12 13:05:21;;;;;;;3.03;1.13;;;19.60;92.20;;;;;;5087086;28;20518;-75
2022/05/12 13:08:05;;;;;;;4.50;1.40;;;19.50;92.10;;;;;;5066820;28;20036;-74
2022/05/12 13:10:42;;;;;;;6.80;1.70;;;19.10;93.00;;;;;;5086587;28;20047;-74
2022/05/12 13:13:07;;;;;;;4.45;1.27;;;18.90;93.50;;;;;;5085731;28;20503;-75
2022/05/12 13:15:39;;;;;;;7.60;1.98;;;18.80;93.00;;;;;;5083599;28;20081;-74
2022/05/12 13:18:08;;;;;;;6.57;1.90;;;18.80;92.90;;;;;;5067103;28;20524;-74
2022/05/12 13:20:42;;;;;;;7.85;1.83;;;19.00;94.50;;;;;;5065605;28;20032;-75